Time;durP1;ratioP1;P1;durP2;ratioP2;P2;SDS_P1;SDS_P2;PMS_P1;PMS_P2;Temp;Humidity;BMP_temperature;BMP_pressure;BME280_temperature;BME280_humidity;BME280_pressure;Samples;Min_cycle;Max_cycle;Signal;HPM_P1;HPM_P2
2022/12/30 00:00:13;;;;;;;12.07;7.40;;;;;;;;;;5158804;27;20015;-67
2022/12/30 00:02:39;;;;;;;13.18;7.28;;;;;;;;;;5158419;27;20022;-67
2022/12/30 00:05:05;;;;;;;16.48;8.20;;;;;;;;;;5158920;27;20082;-67
2022/12/30 00:07:30;;;;;;;13.50;8.23;;;;;;;;;;5157427;27;20482;-68
2022/12/30 00:09:55;;;;;;;15.35;8.48;;;;;;;;;;5159190;27;20015;-67
2022/12/30 00:34:34;;;;;;;11.02;7.07;;;;;;;;;;5158354;27;20034;-68
2022/12/30 00:36:59;;;;;;;13.60;7.07;;;;;;;;;;5158570;27;20113;-69
2022/12/30 00:39:25;;;;;;;12.45;7.95;;;;;;;;;;5158466;27;20113;-67
2022/12/30 00:44:34;;;;;;;11.40;6.80;;;;;;;;;;5158223;27;20090;-68
2022/12/30 00:47:01;;;;;;;15.15;8.02;;;;;;;;;;5158270;27;20027;-68
2022/12/30 00:57:38;;;;;;;13.00;7.28;;;;;;;;;;5155085;27;20504;-68
2022/12/30 01:00:09;;;;;;;13.98;8.48;;;;;;;;;;5153552;27;20023;-68
2022/12/30 01:02:34;;;;;;;13.02;8.02;;;;;;;;;;5154497;27;20041;-67
2022/12/30 01:05:00;;;;;;;16.10;8.48;;;;;;;;;;5154710;27;20027;-69
2022/12/30 01:07:27;;;;;;;16.05;8.88;;;;;;;;;;5154638;27;20485;-68
2022/12/30 01:09:53;;;;;;;12.93;8.70;;;;;;;;;;5154949;27;20490;-68
2022/12/30 01:12:18;;;;;;;16.75;8.35;;;;;;;;;;5154485;27;20030;-66
2022/12/30 01:14:47;;;;;;;14.35;8.30;;;;;;;;;;5154791;27;20427;-68
2022/12/30 01:17:16;;;;;;;15.35;7.75;;;;;;;;;;5154770;27;20497;-68
2022/12/30 01:19:41;;;;;;;11.65;7.40;;;;;;;;;;5154460;27;20015;-68
2022/12/30 01:22:07;;;;;;;12.85;7.53;;;;;;;;;;5154280;27;20397;-68
2022/12/30 01:24:33;;;;;;;10.70;7.00;;;;;;;;;;5154397;27;20071;-74
2022/12/30 01:27:01;;;;;;;14.75;7.45;;;;;;;;;;5154179;27;20022;-74
2022/12/30 01:29:36;;;;;;;11.95;7.18;;;;;;;;;;5152971;27;20027;-73
2022/12/30 01:32:03;;;;;;;12.35;7.20;;;;;;;;;;5154240;27;20019;-75
2022/12/30 01:34:28;;;;;;;11.88;7.13;;;;;;;;;;5154180;27;20026;-73
2022/12/30 01:36:53;;;;;;;12.10;7.40;;;;;;;;;;5154237;27;20026;-73
2022/12/30 01:39:19;;;;;;;12.85;7.60;;;;;;;;;;5154352;27;20114;-75
2022/12/30 01:41:46;;;;;;;12.77;7.25;;;;;;;;;;5153908;27;20064;-75
2022/12/30 01:44:48;;;;;;;13.55;7.85;;;;;;;;;;5153854;27;20047;-75
2022/12/30 01:47:19;;;;;;;14.50;8.63;;;;;;;;;;5153833;27;20060;-74
2022/12/30 01:49:48;;;;;;;13.63;8.48;;;;;;;;;;5153955;27;20492;-68
2022/12/30 01:52:16;;;;;;;14.48;8.18;;;;;;;;;;5153644;27;20034;-70
2022/12/30 01:54:42;;;;;;;14.65;8.80;;;;;;;;;;5153972;27;20030;-73
2022/12/30 01:57:08;;;;;;;16.60;8.70;;;;;;;;;;5154103;27;20027;-71
2022/12/30 01:59:33;;;;;;;14.85;9.05;;;;;;;;;;5153723;27;20031;-76
2022/12/30 02:02:00;;;;;;;15.60;8.82;;;;;;;;;;5153442;27;20030;-72
2022/12/30 02:04:28;;;;;;;13.80;8.93;;;;;;;;;;5152309;27;20029;-70
2022/12/30 02:07:07;;;;;;;13.43;8.35;;;;;;;;;;5153565;27;20029;-75
2022/12/30 02:09:33;;;;;;;14.13;8.40;;;;;;;;;;5153568;27;20493;-68
2022/12/30 02:12:04;;;;;;;13.18;8.05;;;;;;;;;;5153334;27;20640;-68
2022/12/30 02:14:31;;;;;;;12.52;8.30;;;;;;;;;;5153585;27;20029;-67
2022/12/30 02:17:06;;;;;;;13.77;8.35;;;;;;;;;;5153380;27;20041;-69
2022/12/30 02:20:14;;;;;;;15.13;8.02;;;;;;;;;;5153264;27;20026;-68
2022/12/30 02:23:15;;;;;;;12.77;8.13;;;;;;;;;;5153014;27;20087;-68
2022/12/30 02:25:46;;;;;;;11.43;7.50;;;;;;;;;;5153099;27;20528;-69
2022/12/30 02:28:56;;;;;;;13.57;7.07;;;;;;;;;;5153112;27;20033;-67
2022/12/30 02:31:24;;;;;;;12.02;7.20;;;;;;;;;;5120270;27;20042;-68
2022/12/30 02:33:59;;;;;;;12.98;7.05;;;;;;;;;;5152912;27;20082;-68
2022/12/30 02:36:39;;;;;;;13.43;7.53;;;;;;;;;;5153090;27;20501;-68
2022/12/30 02:39:11;;;;;;;12.20;7.45;;;;;;;;;;5153106;27;20026;-69
2022/12/30 02:44:50;;;;;;;12.13;7.35;;;;;;;;;;5151711;27;20532;-68
2022/12/30 02:47:28;;;;;;;12.07;7.68;;;;;;;;;;5151498;27;20035;-67
2022/12/30 02:52:44;;;;;;;11.27;6.47;;;;;;;;;;5159611;27;20128;-69
2022/12/30 02:55:09;;;;;;;12.43;7.07;;;;;;;;;;5157952;27;20606;-68
2022/12/30 02:57:35;;;;;;;11.88;7.38;;;;;;;;;;5152670;27;20050;-67
2022/12/30 03:05:52;;;;;;;11.93;7.27;;;;;;;;;;5152680;27;20034;-68
2022/12/30 03:08:35;;;;;;;13.75;7.18;;;;;;;;;;5152343;27;20290;-70
2022/12/30 03:11:17;;;;;;;11.38;7.28;;;;;;;;;;5152469;27;20102;-69
2022/12/30 03:13:55;;;;;;;12.75;7.05;;;;;;;;;;5152325;27;20107;-69
2022/12/30 03:16:42;;;;;;;11.15;7.00;;;;;;;;;;5150784;27;20054;-68
2022/12/30 03:19:21;;;;;;;12.95;7.07;;;;;;;;;;5152226;27;20509;-70
2022/12/30 03:21:50;;;;;;;11.65;6.45;;;;;;;;;;5152202;27;20031;-68
2022/12/30 03:27:06;;;;;;;9.68;6.68;;;;;;;;;;5152425;27;20389;-70
2022/12/30 03:29:42;;;;;;;10.68;6.50;;;;;;;;;;5152016;27;20083;-68
2022/12/30 03:32:11;;;;;;;11.15;7.05;;;;;;;;;;5152115;27;20071;-69
2022/12/30 03:34:38;;;;;;;13.35;6.95;;;;;;;;;;5152260;27;20014;-68
2022/12/30 03:37:11;;;;;;;11.38;6.38;;;;;;;;;;5152236;27;20027;-69
2022/12/30 03:39:42;;;;;;;11.52;6.80;;;;;;;;;;5152283;27;20022;-68
2022/12/30 03:42:08;;;;;;;11.93;6.68;;;;;;;;;;5152018;27;20540;-67
2022/12/30 03:44:36;;;;;;;14.20;6.15;;;;;;;;;;5151606;27;20046;-69
2022/12/30 03:47:01;;;;;;;14.07;6.63;;;;;;;;;;5151934;27;20587;-70
2022/12/30 03:49:26;;;;;;;9.35;5.47;;;;;;;;;;5151787;27;20117;-68
2022/12/30 03:51:52;;;;;;;10.90;6.15;;;;;;;;;;5152095;27;20023;-68
2022/12/30 03:54:17;;;;;;;8.65;5.47;;;;;;;;;;5151728;27;20041;-68
2022/12/30 03:56:42;;;;;;;11.07;6.00;;;;;;;;;;5151996;27;20054;-68
2022/12/30 03:59:08;;;;;;;10.13;5.30;;;;;;;;;;5151961;27;20025;-68
2022/12/30 04:01:33;;;;;;;9.68;5.57;;;;;;;;;;5150547;27;20029;-68
2022/12/30 04:03:59;;;;;;;9.45;5.82;;;;;;;;;;5151516;27;20031;-67
2022/12/30 04:06:24;;;;;;;9.77;5.10;;;;;;;;;;5151783;27;20470;-67
2022/12/30 04:08:49;;;;;;;9.55;5.28;;;;;;;;;;5151808;27;20088;-70
2022/12/30 04:11:15;;;;;;;9.07;5.57;;;;;;;;;;5151681;27;20482;-72
2022/12/30 04:13:40;;;;;;;11.40;6.18;;;;;;;;;;5151513;27;20067;-75
2022/12/30 04:16:06;;;;;;;10.93;5.68;;;;;;;;;;5151871;27;20019;-67
2022/12/30 04:18:31;;;;;;;10.18;6.13;;;;;;;;;;5151658;27;20076;-70
2022/12/30 04:20:57;;;;;;;11.30;5.93;;;;;;;;;;5151691;27;20030;-69
2022/12/30 04:23:22;;;;;;;8.23;5.00;;;;;;;;;;5151491;27;20035;-73
2022/12/30 04:25:47;;;;;;;12.75;5.68;;;;;;;;;;5151706;27;20019;-68
2022/12/30 04:28:13;;;;;;;9.27;5.65;;;;;;;;;;5154599;27;20030;-72
2022/12/30 04:30:39;;;;;;;12.68;5.80;;;;;;;;;;5156066;27;20022;-70
2022/12/30 04:33:04;;;;;;;11.68;5.60;;;;;;;;;;5155293;27;20087;-68
2022/12/30 04:35:29;;;;;;;11.75;5.57;;;;;;;;;;5155471;27;20497;-74
2022/12/30 04:37:55;;;;;;;11.73;6.20;;;;;;;;;;5155406;27;20029;-71
2022/12/30 04:40:20;;;;;;;9.63;5.40;;;;;;;;;;5155305;27;20027;-68
2022/12/30 04:42:45;;;;;;;10.35;5.40;;;;;;;;;;5154724;27;20398;-72
2022/12/30 04:45:11;;;;;;;14.32;5.47;;;;;;;;;;5155066;27;20079;-73
2022/12/30 04:47:36;;;;;;;11.13;5.18;;;;;;;;;;5155067;27;20053;-72
2022/12/30 04:50:02;;;;;;;10.18;5.60;;;;;;;;;;5154908;27;20061;-72
2022/12/30 04:52:28;;;;;;;10.63;5.53;;;;;;;;;;5155033;27;20023;-72
2022/12/30 04:54:53;;;;;;;8.90;5.43;;;;;;;;;;5155233;27;20023;-73
2022/12/30 04:57:19;;;;;;;9.95;5.28;;;;;;;;;;5155069;27;20031;-74
2022/12/30 04:59:44;;;;;;;8.35;5.10;;;;;;;;;;5154936;27;20023;-72
2022/12/30 05:02:09;;;;;;;13.52;5.72;;;;;;;;;;5154809;27;20034;-73
2022/12/30 05:04:35;;;;;;;11.55;5.68;;;;;;;;;;5154443;27;20030;-71
2022/12/30 05:07:02;;;;;;;10.45;5.40;;;;;;;;;;5154814;27;20494;-76
2022/12/30 05:09:27;;;;;;;11.27;5.90;;;;;;;;;;5154694;27;20071;-74
2022/12/30 05:11:52;;;;;;;9.27;5.82;;;;;;;;;;5154739;27;20027;-68
2022/12/30 05:14:18;;;;;;;11.57;5.72;;;;;;;;;;5154505;27;20022;-68
2022/12/30 05:16:43;;;;;;;10.07;5.65;;;;;;;;;;5154720;27;20100;-68
2022/12/30 05:19:09;;;;;;;12.13;5.90;;;;;;;;;;5154592;27;20086;-73
2022/12/30 05:21:34;;;;;;;13.10;5.93;;;;;;;;;;5154418;27;20485;-68
2022/12/30 05:26:43;;;;;;;11.05;6.25;;;;;;;;;;5154420;27;20504;-72
2022/12/30 05:29:09;;;;;;;11.60;6.22;;;;;;;;;;5154430;27;20113;-71
2022/12/30 05:31:34;;;;;;;11.23;6.35;;;;;;;;;;5154496;27;20030;-73
2022/12/30 05:34:00;;;;;;;10.88;6.43;;;;;;;;;;5156445;27;20027;-68
2022/12/30 05:36:25;;;;;;;9.82;6.20;;;;;;;;;;5162230;27;20401;-72
2022/12/30 05:38:50;;;;;;;11.73;5.97;;;;;;;;;;5155834;27;20539;-68
2022/12/30 05:41:16;;;;;;;9.95;6.10;;;;;;;;;;5154243;27;20037;-71
2022/12/30 05:43:41;;;;;;;11.18;5.78;;;;;;;;;;5153845;27;20042;-68
2022/12/30 05:46:07;;;;;;;11.63;5.78;;;;;;;;;;5154096;27;20019;-67
2022/12/30 05:48:32;;;;;;;10.68;5.40;;;;;;;;;;5153662;27;20031;-67
2022/12/30 05:50:57;;;;;;;10.00;5.40;;;;;;;;;;5154075;27;20033;-67
2022/12/30 05:53:23;;;;;;;11.88;5.60;;;;;;;;;;5153797;27;20500;-67
2022/12/30 05:55:48;;;;;;;9.90;5.50;;;;;;;;;;5153915;27;20030;-67
2022/12/30 05:58:14;;;;;;;11.45;5.28;;;;;;;;;;5154097;27;20393;-68
2022/12/30 06:00:39;;;;;;;10.80;5.43;;;;;;;;;;5153752;27;20470;-66
2022/12/30 06:03:05;;;;;;;10.07;5.63;;;;;;;;;;5153487;27;20019;-68
2022/12/30 06:05:30;;;;;;;12.65;6.05;;;;;;;;;;5153593;27;20023;-70
2022/12/30 06:07:56;;;;;;;8.50;5.50;;;;;;;;;;5153608;27;20038;-72
2022/12/30 06:10:21;;;;;;;11.00;5.85;;;;;;;;;;5153613;27;20022;-73
2022/12/30 06:12:47;;;;;;;11.10;5.90;;;;;;;;;;5153612;27;20404;-68
2022/12/30 06:15:12;;;;;;;11.07;5.68;;;;;;;;;;5153425;27;20023;-71
2022/12/30 06:17:38;;;;;;;13.88;6.32;;;;;;;;;;5153500;27;20098;-69
2022/12/30 06:20:04;;;;;;;11.23;5.93;;;;;;;;;;5153133;27;20022;-73
2022/12/30 06:22:29;;;;;;;12.25;6.07;;;;;;;;;;5151945;27;20398;-70
2022/12/30 06:24:54;;;;;;;12.48;6.50;;;;;;;;;;5153009;27;20057;-67
2022/12/30 06:27:20;;;;;;;11.48;6.10;;;;;;;;;;5153061;27;20034;-69
2022/12/30 06:29:46;;;;;;;12.32;6.32;;;;;;;;;;5153190;27;20094;-69
2022/12/30 06:32:11;;;;;;;11.75;6.25;;;;;;;;;;5153213;27;20019;-69
2022/12/30 06:34:37;;;;;;;11.48;6.40;;;;;;;;;;5152869;27;20071;-71
2022/12/30 06:37:02;;;;;;;13.45;5.88;;;;;;;;;;5153229;27;20067;-68
2022/12/30 06:39:27;;;;;;;12.23;6.28;;;;;;;;;;5153026;27;20402;-70
2022/12/30 06:41:53;;;;;;;11.50;5.78;;;;;;;;;;5152998;27;20110;-72
2022/12/30 06:44:18;;;;;;;9.55;5.55;;;;;;;;;;5152273;27;20395;-69
2022/12/30 06:46:43;;;;;;;11.13;5.80;;;;;;;;;;5152808;27;20015;-70
2022/12/30 06:49:09;;;;;;;11.30;5.82;;;;;;;;;;5152036;27;20034;-71
2022/12/30 06:51:34;;;;;;;10.00;5.60;;;;;;;;;;5152820;27;20393;-74
2022/12/30 06:54:00;;;;;;;11.52;5.63;;;;;;;;;;5152745;27;20105;-72
2022/12/30 06:56:25;;;;;;;9.27;5.00;;;;;;;;;;5152746;27;20064;-72
2022/12/30 06:58:51;;;;;;;11.43;5.45;;;;;;;;;;5152691;27;20022;-76
2022/12/30 07:01:16;;;;;;;8.77;5.25;;;;;;;;;;5152587;27;20027;-73
2022/12/30 07:03:42;;;;;;;10.10;5.30;;;;;;;;;;5152322;27;20022;-77
2022/12/30 07:06:07;;;;;;;10.65;5.40;;;;;;;;;;5152398;27;20019;-75
2022/12/30 07:08:33;;;;;;;9.95;5.35;;;;;;;;;;5152401;27;20063;-71
2022/12/30 07:10:58;;;;;;;9.27;4.82;;;;;;;;;;5152605;27;20470;-68
2022/12/30 07:13:25;;;;;;;9.20;5.05;;;;;;;;;;5152448;27;20015;-67
2022/12/30 07:15:51;;;;;;;11.73;4.90;;;;;;;;;;5152430;27;20023;-72
2022/12/30 07:18:16;;;;;;;8.30;4.53;;;;;;;;;;5152265;27;20023;-72
2022/12/30 07:20:42;;;;;;;9.60;4.65;;;;;;;;;;5152274;27;20027;-70
2022/12/30 07:23:07;;;;;;;10.82;4.90;;;;;;;;;;5152290;27;20071;-76
2022/12/30 07:25:33;;;;;;;11.45;4.72;;;;;;;;;;5152046;27;20031;-68
2022/12/30 07:28:00;;;;;;;8.32;4.68;;;;;;;;;;5152374;27;20031;-68
2022/12/30 07:30:26;;;;;;;8.55;4.50;;;;;;;;;;5152355;27;20034;-77
2022/12/30 07:32:51;;;;;;;8.35;4.45;;;;;;;;;;5152507;27;20030;-71
2022/12/30 07:35:17;;;;;;;8.45;4.40;;;;;;;;;;5151970;27;20029;-72
2022/12/30 07:37:42;;;;;;;10.73;4.75;;;;;;;;;;5152089;27;20041;-70
2022/12/30 07:40:08;;;;;;;9.70;4.22;;;;;;;;;;5151987;27;20062;-72
2022/12/30 07:42:34;;;;;;;9.77;4.10;;;;;;;;;;5151985;27;20482;-73
2022/12/30 07:44:59;;;;;;;8.65;4.55;;;;;;;;;;5151478;27;20101;-69
2022/12/30 07:47:24;;;;;;;9.77;4.50;;;;;;;;;;5151901;27;20502;-71
2022/12/30 07:49:50;;;;;;;8.23;4.35;;;;;;;;;;5151857;27;20019;-74
2022/12/30 07:52:15;;;;;;;9.25;4.20;;;;;;;;;;5152030;27;20023;-71
2022/12/30 07:54:41;;;;;;;8.10;4.50;;;;;;;;;;5151890;27;20025;-74
2022/12/30 07:57:06;;;;;;;9.27;4.28;;;;;;;;;;5152068;27;20021;-69
2022/12/30 07:59:32;;;;;;;8.65;4.40;;;;;;;;;;5151829;27;20474;-67
2022/12/30 08:01:57;;;;;;;8.88;4.40;;;;;;;;;;5153421;27;20023;-69
2022/12/30 08:04:22;;;;;;;9.02;4.65;;;;;;;;;;5155605;27;20482;-68
2022/12/30 08:06:48;;;;;;;9.55;4.60;;;;;;;;;;5156179;27;20023;-69
2022/12/30 08:09:13;;;;;;;10.88;4.05;;;;;;;;;;5156077;27;20023;-69
2022/12/30 08:11:38;;;;;;;8.45;4.03;;;;;;;;;;5156157;27;20018;-69
2022/12/30 08:14:04;;;;;;;8.25;4.22;;;;;;;;;;5156452;27;20030;-72
2022/12/30 08:16:29;;;;;;;8.98;4.30;;;;;;;;;;5157935;27;20019;-69
2022/12/30 08:18:55;;;;;;;10.27;4.28;;;;;;;;;;5163187;27;20084;-68
2022/12/30 08:21:21;;;;;;;11.85;4.63;;;;;;;;;;5170566;27;20022;-68
2022/12/30 08:23:47;;;;;;;10.70;4.65;;;;;;;;;;5157607;27;20022;-68
2022/12/30 08:26:17;;;;;;;11.88;4.40;;;;;;;;;;5156021;27;20030;-68
2022/12/30 08:28:43;;;;;;;;;;;;;;;;;;5156287;27;20015;-71
2022/12/30 08:31:14;;;;;;;9.40;4.50;;;;;;;;;;5155671;27;20290;-69
2022/12/30 08:33:39;;;;;;;12.60;4.68;;;;;;;;;;5155485;27;20023;-68
2022/12/30 08:36:08;;;;;;;9.65;4.93;;;;;;;;;;5155238;27;20026;-68
2022/12/30 08:38:39;;;;;;;12.65;4.85;;;;;;;;;;5155352;27;20027;-71
2022/12/30 08:41:10;;;;;;;8.20;4.70;;;;;;;;;;5155205;27;20061;-69
2022/12/30 08:43:35;;;;;;;;;;;;;;;;;;5155658;27;20034;-67
2022/12/30 08:46:01;;;;;;;9.98;4.35;;;;;;;;;;5155101;27;19918;-67
2022/12/30 08:48:27;;;;;;;8.70;5.07;;;;;;;;;;5154992;27;20130;-70
2022/12/30 08:50:54;;;;;;;12.68;5.15;;;;;;;;;;5155234;27;20026;-68
2022/12/30 08:53:19;;;;;;;12.65;5.13;;;;;;;;;;5155238;27;20393;-68
2022/12/30 08:55:45;;;;;;;9.63;4.60;;;;;;;;;;5154813;27;20029;-68
2022/12/30 08:58:10;;;;;;;14.43;5.45;;;;;;;;;;5155068;27;20057;-68
2022/12/30 09:00:36;;;;;;;10.07;5.07;;;;;;;;;;5154781;27;20015;-67
2022/12/30 09:03:02;;;;;;;12.40;5.68;;;;;;;;;;5154830;27;20018;-69
2022/12/30 09:05:28;;;;;;;11.70;5.45;;;;;;;;;;5154644;27;20026;-67
2022/12/30 09:07:54;;;;;;;12.13;5.90;;;;;;;;;;5155240;27;20023;-69
2022/12/30 09:10:19;;;;;;;10.63;5.45;;;;;;;;;;5153660;27;20023;-67
2022/12/30 09:12:45;;;;;;;12.80;5.75;;;;;;;;;;5154088;27;20019;-68
2022/12/30 09:15:10;;;;;;;12.70;5.28;;;;;;;;;;5154647;27;20054;-68
2022/12/30 09:17:35;;;;;;;11.80;5.60;;;;;;;;;;5154532;27;20106;-68
2022/12/30 09:20:01;;;;;;;12.85;5.53;;;;;;;;;;5154233;27;20700;-69
2022/12/30 09:22:26;;;;;;;13.65;5.90;;;;;;;;;;5154706;27;20094;-67
2022/12/30 09:24:51;;;;;;;14.52;5.65;;;;;;;;;;5154237;27;20548;-69
2022/12/30 09:27:17;;;;;;;12.18;5.57;;;;;;;;;;5154513;27;20027;-70
2022/12/30 09:29:42;;;;;;;13.45;5.15;;;;;;;;;;5154494;27;20063;-69
2022/12/30 09:32:08;;;;;;;11.98;5.30;;;;;;;;;;5154503;27;20027;-68
2022/12/30 09:34:33;;;;;;;14.02;5.63;;;;;;;;;;5153989;27;20082;-68
2022/12/30 09:36:58;;;;;;;12.82;5.43;;;;;;;;;;5154150;27;20023;-68
2022/12/30 09:39:30;;;;;;;15.02;5.20;;;;;;;;;;5154381;27;20022;-67
2022/12/30 09:45:20;;;;;;;10.93;4.85;;;;;;;;;;5153934;27;20087;-71
2022/12/30 09:47:49;;;;;;;9.60;5.20;;;;;;;;;;5118669;27;20099;-70
2022/12/30 09:50:33;;;;;;;11.73;5.25;;;;;;;;;;5153867;27;20031;-68
2022/12/30 09:53:21;;;;;;;10.02;5.20;;;;;;;;;;5154006;27;20026;-69
2022/12/30 09:55:51;;;;;;;12.05;5.40;;;;;;;;;;5153609;27;20072;-68
2022/12/30 09:58:26;;;;;;;14.10;5.90;;;;;;;;;;5153872;27;20033;-68
2022/12/30 10:00:52;;;;;;;12.07;5.32;;;;;;;;;;5153652;27;20087;-68
2022/12/30 10:03:21;;;;;;;14.13;5.78;;;;;;;;;;5153551;27;20022;-68
2022/12/30 10:05:46;;;;;;;10.85;5.40;;;;;;;;;;5153581;27;20023;-68
2022/12/30 10:08:43;;;;;;;11.13;5.30;;;;;;;;;;5153708;27;20438;-68
2022/12/30 10:11:26;;;;;;;11.98;5.43;;;;;;;;;;5153971;27;20351;-69
2022/12/30 10:14:37;;;;;;;12.77;5.75;;;;;;;;;;5153416;27;20015;-69
2022/12/30 10:17:08;;;;;;;;;;;;;;;;;;5153814;27;20027;-68
2022/12/30 10:19:45;;;;;;;15.45;6.20;;;;;;;;;;5153140;27;19915;-69
2022/12/30 10:23:00;;;;;;;13.60;5.65;;;;;;;;;;5153267;27;20023;-69
2022/12/30 10:25:58;;;;;;;9.55;5.53;;;;;;;;;;5133805;27;20406;-68
2022/12/30 10:28:36;;;;;;;14.88;5.00;;;;;;;;;;5153125;27;20386;-68
2022/12/30 10:31:07;;;;;;;15.52;5.85;;;;;;;;;;5153374;27;20025;-70
2022/12/30 10:33:33;;;;;;;;;;;;;;;;;;5153520;27;20067;-68
2022/12/30 10:36:10;;;;;;;9.98;5.15;;;;;;;;;;5152788;27;19911;-67
2022/12/30 10:38:36;;;;;;;11.68;5.00;;;;;;;;;;5152951;27;20031;-67
2022/12/30 10:41:27;;;;;;;11.90;5.22;;;;;;;;;;5152818;27;20102;-69
2022/12/30 10:44:18;;;;;;;12.63;4.85;;;;;;;;;;5153086;27;20510;-75
2022/12/30 10:46:54;;;;;;;12.07;5.47;;;;;;;;;;5152793;27;20027;-69
2022/12/30 10:49:45;;;;;;;10.70;5.38;;;;;;;;;;5152539;27;20061;-76
2022/12/30 10:52:12;;;;;;;10.70;4.95;;;;;;;;;;5152909;27;20023;-69
2022/12/30 10:54:37;;;;;;;10.82;5.00;;;;;;;;;;5152664;27;20035;-68
2022/12/30 10:57:03;;;;;;;14.05;5.28;;;;;;;;;;5152526;27;20038;-68
2022/12/30 10:59:30;;;;;;;10.07;5.20;;;;;;;;;;5151541;27;20022;-68
2022/12/30 11:02:12;;;;;;;9.30;4.82;;;;;;;;;;5155759;27;20489;-72
2022/12/30 11:04:40;;;;;;;10.00;4.80;;;;;;;;;;5155404;27;20038;-68
2022/12/30 11:07:11;;;;;;;12.30;5.05;;;;;;;;;;5152996;27;20030;-69
2022/12/30 11:09:38;;;;;;;8.23;4.57;;;;;;;;;;5152671;27;20057;-71
2022/12/30 11:15:06;;;;;;;12.67;4.40;;;;;;;;;;5152525;27;20026;-75
2022/12/30 11:17:48;;;;;;;11.48;4.55;;;;;;;;;;5152273;27;20022;-76
2022/12/30 11:20:13;;;;;;;12.48;4.68;;;;;;;;;;5151974;27;20419;-72
2022/12/30 11:22:52;;;;;;;11.65;4.95;;;;;;;;;;5152372;27;20079;-68
2022/12/30 11:25:36;;;;;;;13.13;4.60;;;;;;;;;;5152099;27;20026;-68
2022/12/30 11:28:05;;;;;;;12.13;5.07;;;;;;;;;;5152286;27;20064;-74
2022/12/30 11:30:34;;;;;;;11.52;5.22;;;;;;;;;;5152233;27;20609;-67
2022/12/30 11:33:03;;;;;;;8.82;4.90;;;;;;;;;;5152108;27;20023;-71
2022/12/30 11:35:32;;;;;;;11.35;4.97;;;;;;;;;;5151544;27;20110;-69
2022/12/30 11:37:57;;;;;;;12.57;4.95;;;;;;;;;;5152079;27;20031;-71
2022/12/30 11:40:34;;;;;;;9.77;4.97;;;;;;;;;;5152012;27;20015;-68
2022/12/30 11:43:19;;;;;;;8.55;4.38;;;;;;;;;;5150523;27;20621;-69
2022/12/30 11:46:06;;;;;;;9.65;4.50;;;;;;;;;;5151727;27;20054;-72
2022/12/30 11:48:38;;;;;;;12.90;4.47;;;;;;;;;;5151753;27;20035;-71
2022/12/30 11:51:14;;;;;;;13.77;4.40;;;;;;;;;;5152027;27;20019;-73
2022/12/30 11:53:40;;;;;;;10.52;4.50;;;;;;;;;;5151921;27;20034;-71
2022/12/30 11:56:06;;;;;;;9.90;4.45;;;;;;;;;;5151472;27;20048;-76
2022/12/30 11:58:36;;;;;;;10.00;4.32;;;;;;;;;;5151825;27;20026;-72
2022/12/30 12:01:09;;;;;;;9.93;4.43;;;;;;;;;;5151892;27;20019;-70
2022/12/30 12:03:56;;;;;;;11.02;4.57;;;;;;;;;;5151838;27;20027;-76
2022/12/30 12:06:22;;;;;;;9.05;3.95;;;;;;;;;;5151611;27;20027;-75
2022/12/30 12:09:04;;;;;;;7.35;4.18;;;;;;;;;;5151753;27;20039;-76
2022/12/30 12:11:35;;;;;;;9.63;4.50;;;;;;;;;;5151819;27;20123;-76
2022/12/30 12:14:15;;;;;;;9.48;4.28;;;;;;;;;;5151459;27;20046;-68
2022/12/30 12:17:28;;;;;;;9.50;4.53;;;;;;;;;;5151389;27;20031;-68
2022/12/30 12:20:03;;;;;;;9.02;4.18;;;;;;;;;;5087531;28;20047;-68
2022/12/30 12:23:00;;;;;;;8.18;4.18;;;;;;;;;;5147605;27;20035;-68
2022/12/30 12:25:33;;;;;;;12.85;4.72;;;;;;;;;;5151502;27;20019;-68
2022/12/30 12:27:59;;;;;;;8.52;4.10;;;;;;;;;;5151400;27;20485;-71
2022/12/30 12:30:33;;;;;;;11.65;4.63;;;;;;;;;;5151679;27;20027;-75
2022/12/30 12:33:12;;;;;;;10.05;4.53;;;;;;;;;;5151445;27;20105;-75
2022/12/30 12:35:49;;;;;;;10.68;4.72;;;;;;;;;;5151166;27;20067;-74
2022/12/30 12:38:32;;;;;;;10.05;4.35;;;;;;;;;;5151435;27;20030;-74
2022/12/30 12:41:22;;;;;;;10.27;4.53;;;;;;;;;;5151525;27;20489;-75
2022/12/30 12:44:15;;;;;;;11.35;4.70;;;;;;;;;;5151492;27;20090;-69
2022/12/30 12:47:22;;;;;;;9.85;4.20;;;;;;;;;;5151444;27;20095;-70
2022/12/30 12:50:14;;;;;;;11.95;4.93;;;;;;;;;;5154962;27;20060;-74
2022/12/30 12:53:26;;;;;;;10.38;4.72;;;;;;;;;;5155010;27;20026;-73
2022/12/30 12:56:10;;;;;;;9.45;4.55;;;;;;;;;;5154846;27;20026;-75
2022/12/30 12:58:53;;;;;;;8.50;4.05;;;;;;;;;;5154914;27;20055;-74
2022/12/30 13:01:34;;;;;;;10.95;4.03;;;;;;;;;;5154745;27;20038;-75
2022/12/30 13:04:23;;;;;;;6.82;4.10;;;;;;;;;;5155057;27;20034;-73
2022/12/30 13:06:54;;;;;;;10.32;4.60;;;;;;;;;;5154657;27;20061;-73
2022/12/30 13:09:20;;;;;;;8.02;3.90;;;;;;;;;;5154893;27;20022;-74
2022/12/30 13:11:57;;;;;;;8.88;4.00;;;;;;;;;;5154911;27;20023;-76
2022/12/30 13:14:47;;;;;;;8.90;4.22;;;;;;;;;;5154485;27;20525;-73
2022/12/30 13:17:39;;;;;;;9.10;3.90;;;;;;;;;;5154198;27;20022;-73
2022/12/30 13:20:12;;;;;;;11.43;4.18;;;;;;;;;;5154472;27;20027;-75
2022/12/30 13:22:39;;;;;;;8.40;3.67;;;;;;;;;;5154589;27;20560;-75
2022/12/30 13:25:18;;;;;;;9.75;3.97;;;;;;;;;;5154653;27;20551;-76
2022/12/30 13:27:46;;;;;;;8.18;3.67;;;;;;;;;;5154122;27;20045;-76
2022/12/30 13:30:17;;;;;;;8.93;3.97;;;;;;;;;;5154516;27;20023;-76
2022/12/30 13:32:51;;;;;;;8.43;3.80;;;;;;;;;;5154359;27;20062;-73
2022/12/30 13:35:43;;;;;;;11.43;3.65;;;;;;;;;;5154122;27;20648;-76
2022/12/30 13:38:42;;;;;;;12.68;4.15;;;;;;;;;;5150606;27;20046;-73
2022/12/30 13:41:13;;;;;;;10.60;3.85;;;;;;;;;;5154332;27;20030;-75
2022/12/30 13:43:44;;;;;;;8.93;4.10;;;;;;;;;;5153935;27;20038;-74
2022/12/30 13:46:17;;;;;;;9.60;4.10;;;;;;;;;;5154119;27;20554;-75
2022/12/30 13:48:57;;;;;;;7.22;4.07;;;;;;;;;;5153981;27;20382;-75
2022/12/30 13:51:25;;;;;;;7.80;3.60;;;;;;;;;;5154077;27;20019;-74
2022/12/30 13:53:56;;;;;;;8.05;3.58;;;;;;;;;;5153917;27;20046;-69
2022/12/30 13:56:43;;;;;;;8.73;3.67;;;;;;;;;;5153421;27;20019;-75
2022/12/30 13:59:29;;;;;;;8.40;3.85;;;;;;;;;;5153618;27;20375;-74
2022/12/30 14:02:20;;;;;;;9.82;3.80;;;;;;;;;;5154009;27;20695;-75
2022/12/30 14:04:47;;;;;;;8.90;3.55;;;;;;;;;;5153953;27;20405;-75
2022/12/30 14:07:50;;;;;;;8.02;3.50;;;;;;;;;;5153632;27;20030;-73
2022/12/30 14:10:19;;;;;;;7.07;3.60;;;;;;;;;;5089308;28;20118;-72
2022/12/30 14:13:05;;;;;;;8.57;3.92;;;;;;;;;;5089202;28;20103;-69
2022/12/30 14:15:30;;;;;;;12.90;3.75;;;;;;;;;;5128637;27;20039;-74
2022/12/30 14:17:58;;;;;;;8.05;3.63;;;;;;;;;;5153219;27;20483;-77
2022/12/30 14:20:28;;;;;;;10.13;3.60;;;;;;;;;;5153424;27;20463;-76
2022/12/30 14:23:01;;;;;;;9.40;3.75;;;;;;;;;;5152267;27;20019;-75
2022/12/30 14:25:33;;;;;;;7.28;3.95;;;;;;;;;;5153353;27;20038;-73
2022/12/30 14:28:26;;;;;;;6.75;3.45;;;;;;;;;;5152932;27;20023;-74
2022/12/30 14:30:58;;;;;;;9.45;3.60;;;;;;;;;;5150304;27;20039;-75
2022/12/30 14:33:37;;;;;;;7.43;3.60;;;;;;;;;;5152951;27;20027;-75
2022/12/30 14:36:02;;;;;;;8.65;3.50;;;;;;;;;;5153020;27;20015;-73
2022/12/30 14:38:32;;;;;;;7.60;3.80;;;;;;;;;;5152824;27;20018;-75
2022/12/30 14:41:08;;;;;;;8.45;3.80;;;;;;;;;;5153013;27;20014;-74
2022/12/30 14:43:43;;;;;;;8.20;3.70;;;;;;;;;;5152890;27;20045;-70
2022/12/30 14:46:31;;;;;;;7.30;3.63;;;;;;;;;;5153135;27;20037;-72
2022/12/30 14:48:59;;;;;;;8.60;3.70;;;;;;;;;;5152536;27;20039;-72
2022/12/30 14:51:24;;;;;;;6.75;3.80;;;;;;;;;;5152862;27;20019;-71
2022/12/30 14:53:50;;;;;;;5.80;3.70;;;;;;;;;;5151316;27;20106;-68
2022/12/30 14:56:18;;;;;;;9.30;4.15;;;;;;;;;;5152732;27;20018;-72
2022/12/30 14:58:45;;;;;;;9.73;3.65;;;;;;;;;;5152513;27;20022;-69
2022/12/30 15:01:11;;;;;;;6.88;3.63;;;;;;;;;;5152746;27;20075;-73
2022/12/30 15:03:37;;;;;;;7.43;3.80;;;;;;;;;;5152610;27;20031;-71
2022/12/30 15:06:03;;;;;;;7.65;3.60;;;;;;;;;;5152783;27;20066;-73
2022/12/30 15:08:34;;;;;;;6.25;3.30;;;;;;;;;;5152126;27;20034;-68
2022/12/30 15:11:08;;;;;;;5.85;3.50;;;;;;;;;;5151792;27;20430;-74
2022/12/30 15:13:46;;;;;;;11.60;4.20;;;;;;;;;;5152446;27;20023;-77
2022/12/30 15:16:23;;;;;;;9.85;3.85;;;;;;;;;;5152183;27;20474;-69
2022/12/30 15:18:58;;;;;;;9.80;3.65;;;;;;;;;;5152093;27;20082;-69
2022/12/30 15:21:32;;;;;;;7.90;3.75;;;;;;;;;;5152317;27;20019;-68
2022/12/30 15:24:00;;;;;;;8.80;4.07;;;;;;;;;;5152586;27;20102;-69
2022/12/30 15:26:32;;;;;;;11.77;4.30;;;;;;;;;;5152217;27;20029;-68
2022/12/30 15:28:58;;;;;;;8.98;3.95;;;;;;;;;;5152108;27;20034;-69
2022/12/30 15:31:27;;;;;;;8.65;4.22;;;;;;;;;;5152155;27;20073;-68
2022/12/30 15:33:59;;;;;;;9.77;4.30;;;;;;;;;;5151922;27;20014;-67
2022/12/30 15:36:26;;;;;;;10.07;3.88;;;;;;;;;;5152018;27;20019;-70
2022/12/30 15:38:54;;;;;;;8.00;4.15;;;;;;;;;;5152037;27;20067;-70
2022/12/30 15:41:25;;;;;;;6.75;3.60;;;;;;;;;;5152106;27;20038;-70
2022/12/30 15:43:56;;;;;;;9.70;3.55;;;;;;;;;;5152136;27;20098;-67
2022/12/30 15:46:32;;;;;;;8.32;3.90;;;;;;;;;;5152107;27;20474;-69
2022/12/30 15:49:13;;;;;;;6.63;3.63;;;;;;;;;;5151331;27;20159;-68
2022/12/30 15:51:43;;;;;;;7.88;4.40;;;;;;;;;;5151871;27;20038;-72
2022/12/30 15:54:32;;;;;;;8.87;3.63;;;;;;;;;;5151850;27;20035;-69